sensor_id;sensor_type;location;lat;lon;timestamp;P1;durP1;ratioP1;P2;durP2;ratioP2
59040;SDS011;44825;53.200;6.448;2023-10-13T00:01:53;47.45;;;27.38;;
59040;SDS011;44825;53.200;6.448;2023-10-13T00:04:20;46.35;;;26.00;;
59040;SDS011;44825;53.200;6.448;2023-10-13T00:06:53;53.65;;;28.23;;
59040;SDS011;44825;53.200;6.448;2023-10-13T00:09:21;49.03;;;29.55;;
59040;SDS011;44825;53.200;6.448;2023-10-13T00:11:53;53.22;;;28.48;;
59040;SDS011;44825;53.200;6.448;2023-10-13T00:14:21;57.03;;;28.48;;
59040;SDS011;44825;53.200;6.448;2023-10-13T00:16:47;48.55;;;27.20;;
59040;SDS011;44825;53.200;6.448;2023-10-13T00:19:30;47.00;;;26.80;;
59040;SDS011;44825;53.200;6.448;2023-10-13T00:22:14;57.70;;;28.45;;
59040;SDS011;44825;53.200;6.448;2023-10-13T00:24:43;46.83;;;26.63;;
59040;SDS011;44825;53.200;6.448;2023-10-13T00:27:13;42.17;;;26.20;;
59040;SDS011;44825;53.200;6.448;2023-10-13T00:29:59;51.67;;;28.80;;
59040;SDS011;44825;53.200;6.448;2023-10-13T00:32:44;51.53;;;27.85;;
59040;SDS011;44825;53.200;6.448;2023-10-13T00:35:16;50.35;;;27.27;;
59040;SDS011;44825;53.200;6.448;2023-10-13T00:38:00;43.83;;;24.90;;
59040;SDS011;44825;53.200;6.448;2023-10-13T00:40:29;57.65;;;27.98;;
59040;SDS011;44825;53.200;6.448;2023-10-13T00:42:56;46.22;;;26.23;;
59040;SDS011;44825;53.200;6.448;2023-10-13T00:45:45;44.15;;;25.95;;
59040;SDS011;44825;53.200;6.448;2023-10-13T00:48:44;50.50;;;27.08;;
59040;SDS011;44825;53.200;6.448;2023-10-13T00:51:17;45.90;;;25.95;;
59040;SDS011;44825;53.200;6.448;2023-10-13T00:53:47;51.13;;;26.75;;
59040;SDS011;44825;53.200;6.448;2023-10-13T00:56:14;60.33;;;28.73;;
59040;SDS011;44825;53.200;6.448;2023-10-13T00:58:48;45.03;;;25.83;;
59040;SDS011;44825;53.200;6.448;2023-10-13T01:01:18;44.72;;;25.40;;
59040;SDS011;44825;53.200;6.448;2023-10-13T01:03:52;43.13;;;25.40;;
59040;SDS011;44825;53.200;6.448;2023-10-13T01:06:24;56.97;;;27.73;;
59040;SDS011;44825;53.200;6.448;2023-10-13T01:08:56;40.35;;;25.02;;
59040;SDS011;44825;53.200;6.448;2023-10-13T01:11:22;56.80;;;28.85;;
59040;SDS011;44825;53.200;6.448;2023-10-13T01:13:54;45.35;;;27.77;;
59040;SDS011;44825;53.200;6.448;2023-10-13T01:16:22;63.80;;;28.25;;
59040;SDS011;44825;53.200;6.448;2023-10-13T01:18:52;50.38;;;28.63;;
59040;SDS011;44825;53.200;6.448;2023-10-13T01:21:18;35.53;;;24.40;;
59040;SDS011;44825;53.200;6.448;2023-10-13T01:23:45;49.50;;;27.67;;
59040;SDS011;44825;53.200;6.448;2023-10-13T01:26:13;48.63;;;26.60;;
59040;SDS011;44825;53.200;6.448;2023-10-13T01:28:46;57.95;;;27.15;;
59040;SDS011;44825;53.200;6.448;2023-10-13T01:31:13;49.45;;;27.05;;
59040;SDS011;44825;53.200;6.448;2023-10-13T01:33:50;45.72;;;25.38;;
59040;SDS011;44825;53.200;6.448;2023-10-13T01:36:22;44.10;;;23.65;;
59040;SDS011;44825;53.200;6.448;2023-10-13T01:38:49;38.70;;;22.67;;
59040;SDS011;44825;53.200;6.448;2023-10-13T01:41:16;49.60;;;24.23;;
59040;SDS011;44825;53.200;6.448;2023-10-13T01:43:42;43.75;;;23.75;;
59040;SDS011;44825;53.200;6.448;2023-10-13T01:46:09;46.13;;;22.88;;
59040;SDS011;44825;53.200;6.448;2023-10-13T01:48:35;57.72;;;24.70;;
59040;SDS011;44825;53.200;6.448;2023-10-13T01:51:05;38.90;;;20.92;;
59040;SDS011;44825;53.200;6.448;2023-10-13T01:53:34;39.65;;;20.70;;
59040;SDS011;44825;53.200;6.448;2023-10-13T01:56:01;56.35;;;23.38;;
59040;SDS011;44825;53.200;6.448;2023-10-13T01:58:35;29.17;;;18.30;;
59040;SDS011;44825;53.200;6.448;2023-10-13T02:01:01;44.65;;;19.63;;
59040;SDS011;44825;53.200;6.448;2023-10-13T02:03:29;36.10;;;18.85;;
59040;SDS011;44825;53.200;6.448;2023-10-13T02:05:56;31.75;;;19.33;;
59040;SDS011;44825;53.200;6.448;2023-10-13T02:10:55;35.58;;;18.52;;
59040;SDS011;44825;53.200;6.448;2023-10-13T02:13:22;35.17;;;16.92;;
59040;SDS011;44825;53.200;6.448;2023-10-13T02:15:49;27.45;;;15.63;;
59040;SDS011;44825;53.200;6.448;2023-10-13T02:18:17;28.50;;;15.38;;
59040;SDS011;44825;53.200;6.448;2023-10-13T02:20:48;26.60;;;14.93;;
59040;SDS011;44825;53.200;6.448;2023-10-13T02:23:20;24.83;;;14.77;;
59040;SDS011;44825;53.200;6.448;2023-10-13T02:25:46;25.05;;;14.07;;
59040;SDS011;44825;53.200;6.448;2023-10-13T02:28:13;25.05;;;14.45;;
59040;SDS011;44825;53.200;6.448;2023-10-13T02:30:43;21.48;;;13.75;;
59040;SDS011;44825;53.200;6.448;2023-10-13T02:33:13;26.83;;;14.05;;
59040;SDS011;44825;53.200;6.448;2023-10-13T02:35:39;29.15;;;15.20;;
59040;SDS011;44825;53.200;6.448;2023-10-13T02:38:18;30.73;;;16.23;;
59040;SDS011;44825;53.200;6.448;2023-10-13T02:40:51;26.08;;;16.17;;
59040;SDS011;44825;53.200;6.448;2023-10-13T02:43:19;26.85;;;15.15;;
59040;SDS011;44825;53.200;6.448;2023-10-13T02:45:51;26.83;;;15.85;;
59040;SDS011;44825;53.200;6.448;2023-10-13T02:48:23;29.52;;;15.25;;
59040;SDS011;44825;53.200;6.448;2023-10-13T02:50:54;26.30;;;14.05;;
59040;SDS011;44825;53.200;6.448;2023-10-13T02:53:21;21.83;;;13.95;;
59040;SDS011;44825;53.200;6.448;2023-10-13T02:55:53;19.30;;;12.30;;
59040;SDS011;44825;53.200;6.448;2023-10-13T02:58:21;22.35;;;12.52;;
59040;SDS011;44825;53.200;6.448;2023-10-13T03:00:47;19.27;;;11.63;;
59040;SDS011;44825;53.200;6.448;2023-10-13T03:03:13;26.98;;;13.80;;
59040;SDS011;44825;53.200;6.448;2023-10-13T03:05:43;20.52;;;12.80;;
59040;SDS011;44825;53.200;6.448;2023-10-13T03:08:10;24.08;;;15.52;;
59040;SDS011;44825;53.200;6.448;2023-10-13T03:10:37;33.00;;;17.27;;
59040;SDS011;44825;53.200;6.448;2023-10-13T03:13:11;24.15;;;16.00;;
59040;SDS011;44825;53.200;6.448;2023-10-13T03:15:37;40.30;;;20.98;;
59040;SDS011;44825;53.200;6.448;2023-10-13T03:18:03;35.08;;;20.40;;
59040;SDS011;44825;53.200;6.448;2023-10-13T03:20:29;32.88;;;21.20;;
59040;SDS011;44825;53.200;6.448;2023-10-13T03:22:57;35.13;;;21.60;;
59040;SDS011;44825;53.200;6.448;2023-10-13T03:25:23;36.80;;;21.88;;
59040;SDS011;44825;53.200;6.448;2023-10-13T03:27:54;38.22;;;22.08;;
59040;SDS011;44825;53.200;6.448;2023-10-13T03:30:21;37.78;;;23.05;;
59040;SDS011;44825;53.200;6.448;2023-10-13T03:32:55;43.20;;;21.92;;
59040;SDS011;44825;53.200;6.448;2023-10-13T03:35:21;40.67;;;22.95;;
59040;SDS011;44825;53.200;6.448;2023-10-13T03:37:56;45.13;;;21.92;;
59040;SDS011;44825;53.200;6.448;2023-10-13T03:40:22;36.20;;;19.98;;
59040;SDS011;44825;53.200;6.448;2023-10-13T03:42:49;32.95;;;18.83;;
59040;SDS011;44825;53.200;6.448;2023-10-13T03:45:35;38.75;;;19.42;;
59040;SDS011;44825;53.200;6.448;2023-10-13T03:48:22;28.92;;;17.42;;
59040;SDS011;44825;53.200;6.448;2023-10-13T03:50:55;29.40;;;16.23;;
59040;SDS011;44825;53.200;6.448;2023-10-13T03:53:39;27.05;;;14.63;;
59040;SDS011;44825;53.200;6.448;2023-10-13T03:56:18;27.65;;;15.52;;
59040;SDS011;44825;53.200;6.448;2023-10-13T03:59:04;23.17;;;14.32;;
59040;SDS011;44825;53.200;6.448;2023-10-13T04:01:47;24.85;;;14.00;;
59040;SDS011;44825;53.200;6.448;2023-10-13T04:04:14;25.42;;;13.38;;
59040;SDS011;44825;53.200;6.448;2023-10-13T04:06:41;21.88;;;13.85;;
59040;SDS011;44825;53.200;6.448;2023-10-13T04:09:21;25.13;;;15.35;;
59040;SDS011;44825;53.200;6.448;2023-10-13T04:14:29;24.52;;;14.13;;
59040;SDS011;44825;53.200;6.448;2023-10-13T04:17:14;23.67;;;13.60;;
59040;SDS011;44825;53.200;6.448;2023-10-13T04:19:41;27.52;;;15.38;;
59040;SDS011;44825;53.200;6.448;2023-10-13T04:22:26;37.30;;;16.70;;
59040;SDS011;44825;53.200;6.448;2023-10-13T04:25:22;35.05;;;16.30;;
59040;SDS011;44825;53.200;6.448;2023-10-13T04:28:14;42.10;;;17.57;;
59040;SDS011;44825;53.200;6.448;2023-10-13T04:30:59;31.52;;;16.58;;
59040;SDS011;44825;53.200;6.448;2023-10-13T04:33:36;37.17;;;18.00;;
59040;SDS011;44825;53.200;6.448;2023-10-13T04:36:21;35.53;;;17.55;;
59040;SDS011;44825;53.200;6.448;2023-10-13T04:38:59;35.28;;;17.98;;
59040;SDS011;44825;53.200;6.448;2023-10-13T04:41:29;29.98;;;15.98;;
59040;SDS011;44825;53.200;6.448;2023-10-13T04:44:07;32.10;;;16.65;;
59040;SDS011;44825;53.200;6.448;2023-10-13T04:46:53;37.25;;;16.63;;
59040;SDS011;44825;53.200;6.448;2023-10-13T04:49:32;36.35;;;14.75;;
59040;SDS011;44825;53.200;6.448;2023-10-13T04:52:07;35.60;;;16.23;;
59040;SDS011;44825;53.200;6.448;2023-10-13T04:54:34;35.38;;;15.40;;
59040;SDS011;44825;53.200;6.448;2023-10-13T04:57:13;49.97;;;17.25;;
59040;SDS011;44825;53.200;6.448;2023-10-13T05:00:00;32.83;;;15.82;;
59040;SDS011;44825;53.200;6.448;2023-10-13T05:02:32;43.53;;;15.85;;
59040;SDS011;44825;53.200;6.448;2023-10-13T05:05:08;38.65;;;15.95;;
59040;SDS011;44825;53.200;6.448;2023-10-13T05:07:44;32.65;;;14.40;;
59040;SDS011;44825;53.200;6.448;2023-10-13T05:10:29;30.48;;;15.05;;
59040;SDS011;44825;53.200;6.448;2023-10-13T05:13:14;26.67;;;13.82;;
59040;SDS011;44825;53.200;6.448;2023-10-13T05:15:59;29.75;;;14.20;;
59040;SDS011;44825;53.200;6.448;2023-10-13T05:18:44;37.78;;;13.43;;
59040;SDS011;44825;53.200;6.448;2023-10-13T05:21:29;30.48;;;12.70;;
59040;SDS011;44825;53.200;6.448;2023-10-13T05:24:14;25.05;;;11.65;;
59040;SDS011;44825;53.200;6.448;2023-10-13T05:26:59;20.35;;;11.52;;
59040;SDS011;44825;53.200;6.448;2023-10-13T05:29:44;20.48;;;10.27;;
59040;SDS011;44825;53.200;6.448;2023-10-13T05:32:30;26.40;;;10.85;;
59040;SDS011;44825;53.200;6.448;2023-10-13T05:35:15;20.58;;;9.25;;
59040;SDS011;44825;53.200;6.448;2023-10-13T05:38:00;19.98;;;9.85;;
59040;SDS011;44825;53.200;6.448;2023-10-13T05:43:43;16.17;;;7.10;;
59040;SDS011;44825;53.200;6.448;2023-10-13T05:46:27;14.48;;;6.60;;
59040;SDS011;44825;53.200;6.448;2023-10-13T05:49:14;13.10;;;6.72;;
59040;SDS011;44825;53.200;6.448;2023-10-13T05:51:40;13.35;;;5.78;;
59040;SDS011;44825;53.200;6.448;2023-10-13T05:54:06;12.38;;;6.72;;
59040;SDS011;44825;53.200;6.448;2023-10-13T05:56:38;21.33;;;8.23;;
59040;SDS011;44825;53.200;6.448;2023-10-13T05:59:23;10.82;;;6.47;;
59040;SDS011;44825;53.200;6.448;2023-10-13T06:02:08;11.02;;;6.05;;
59040;SDS011;44825;53.200;6.448;2023-10-13T06:04:52;9.93;;;6.10;;
59040;SDS011;44825;53.200;6.448;2023-10-13T06:07:37;14.90;;;6.63;;
59040;SDS011;44825;53.200;6.448;2023-10-13T06:10:22;10.77;;;5.78;;
59040;SDS011;44825;53.200;6.448;2023-10-13T06:13:07;7.97;;;4.85;;
59040;SDS011;44825;53.200;6.448;2023-10-13T06:15:51;12.63;;;5.80;;
59040;SDS011;44825;53.200;6.448;2023-10-13T06:18:36;11.70;;;6.28;;
59040;SDS011;44825;53.200;6.448;2023-10-13T06:21:21;12.32;;;6.55;;
59040;SDS011;44825;53.200;6.448;2023-10-13T06:24:06;13.27;;;5.35;;
59040;SDS011;44825;53.200;6.448;2023-10-13T06:26:51;10.07;;;5.03;;
59040;SDS011;44825;53.200;6.448;2023-10-13T06:29:36;14.20;;;5.57;;
59040;SDS011;44825;53.200;6.448;2023-10-13T06:32:02;12.25;;;5.72;;
59040;SDS011;44825;53.200;6.448;2023-10-13T06:34:35;12.73;;;5.88;;
59040;SDS011;44825;53.200;6.448;2023-10-13T06:37:12;9.52;;;5.28;;
59040;SDS011;44825;53.200;6.448;2023-10-13T06:39:54;9.70;;;5.68;;
59040;SDS011;44825;53.200;6.448;2023-10-13T06:42:41;13.90;;;5.38;;
59040;SDS011;44825;53.200;6.448;2023-10-13T06:45:08;8.50;;;4.80;;
59040;SDS011;44825;53.200;6.448;2023-10-13T06:47:36;10.00;;;5.05;;
59040;SDS011;44825;53.200;6.448;2023-10-13T06:50:14;8.85;;;4.80;;
59040;SDS011;44825;53.200;6.448;2023-10-13T06:52:45;10.55;;;4.90;;
59040;SDS011;44825;53.200;6.448;2023-10-13T06:55:17;11.52;;;5.57;;
59040;SDS011;44825;53.200;6.448;2023-10-13T06:57:48;10.98;;;5.82;;
59040;SDS011;44825;53.200;6.448;2023-10-13T07:00:16;10.32;;;6.00;;
59040;SDS011;44825;53.200;6.448;2023-10-13T07:02:52;20.30;;;7.30;;
59040;SDS011;44825;53.200;6.448;2023-10-13T07:05:33;13.05;;;6.50;;
59040;SDS011;44825;53.200;6.448;2023-10-13T07:07:59;9.63;;;5.82;;
59040;SDS011;44825;53.200;6.448;2023-10-13T07:10:26;11.20;;;4.95;;
59040;SDS011;44825;53.200;6.448;2023-10-13T07:12:55;10.30;;;4.55;;
59040;SDS011;44825;53.200;6.448;2023-10-13T07:15:25;11.95;;;5.85;;
59040;SDS011;44825;53.200;6.448;2023-10-13T07:17:54;8.82;;;4.68;;
59040;SDS011;44825;53.200;6.448;2023-10-13T07:20:24;12.25;;;5.30;;
59040;SDS011;44825;53.200;6.448;2023-10-13T07:22:59;11.48;;;4.78;;
59040;SDS011;44825;53.200;6.448;2023-10-13T07:25:31;11.45;;;4.72;;
59040;SDS011;44825;53.200;6.448;2023-10-13T07:27:58;11.32;;;4.72;;
59040;SDS011;44825;53.200;6.448;2023-10-13T07:30:25;11.27;;;5.82;;
59040;SDS011;44825;53.200;6.448;2023-10-13T07:32:52;11.00;;;5.45;;
59040;SDS011;44825;53.200;6.448;2023-10-13T07:35:22;14.77;;;5.63;;
59040;SDS011;44825;53.200;6.448;2023-10-13T07:37:50;19.55;;;6.32;;
59040;SDS011;44825;53.200;6.448;2023-10-13T07:40:19;13.52;;;5.18;;
59040;SDS011;44825;53.200;6.448;2023-10-13T07:42:52;14.20;;;4.70;;
59040;SDS011;44825;53.200;6.448;2023-10-13T07:45:21;21.83;;;6.57;;
59040;SDS011;44825;53.200;6.448;2023-10-13T07:47:50;16.42;;;5.88;;
59040;SDS011;44825;53.200;6.448;2023-10-13T07:50:17;9.98;;;5.57;;
59040;SDS011;44825;53.200;6.448;2023-10-13T07:52:52;12.43;;;5.05;;
59040;SDS011;44825;53.200;6.448;2023-10-13T07:55:30;13.73;;;5.93;;
59040;SDS011;44825;53.200;6.448;2023-10-13T07:57:59;14.40;;;6.03;;
59040;SDS011;44825;53.200;6.448;2023-10-13T08:00:32;15.80;;;6.07;;
59040;SDS011;44825;53.200;6.448;2023-10-13T08:03:11;13.27;;;5.30;;
59040;SDS011;44825;53.200;6.448;2023-10-13T08:05:40;16.08;;;5.63;;
59040;SDS011;44825;53.200;6.448;2023-10-13T08:08:25;17.05;;;6.78;;
59040;SDS011;44825;53.200;6.448;2023-10-13T08:10:52;18.95;;;6.70;;
59040;SDS011;44825;53.200;6.448;2023-10-13T08:13:21;14.90;;;6.10;;
59040;SDS011;44825;53.200;6.448;2023-10-13T08:15:47;12.15;;;5.60;;
59040;SDS011;44825;53.200;6.448;2023-10-13T08:18:14;16.08;;;6.40;;
59040;SDS011;44825;53.200;6.448;2023-10-13T08:21:01;13.20;;;5.90;;
59040;SDS011;44825;53.200;6.448;2023-10-13T08:23:30;17.55;;;7.65;;
59040;SDS011;44825;53.200;6.448;2023-10-13T08:26:15;17.90;;;6.25;;
59040;SDS011;44825;53.200;6.448;2023-10-13T08:29:00;18.20;;;6.53;;
59040;SDS011;44825;53.200;6.448;2023-10-13T08:31:46;15.70;;;6.53;;
59040;SDS011;44825;53.200;6.448;2023-10-13T08:34:31;20.85;;;6.88;;
59040;SDS011;44825;53.200;6.448;2023-10-13T08:39:53;15.27;;;5.95;;
59040;SDS011;44825;53.200;6.448;2023-10-13T08:45:13;15.60;;;6.00;;
59040;SDS011;44825;53.200;6.448;2023-10-13T08:47:49;16.58;;;6.22;;
59040;SDS011;44825;53.200;6.448;2023-10-13T08:50:33;18.58;;;6.82;;
59040;SDS011;44825;53.200;6.448;2023-10-13T08:53:24;17.63;;;6.45;;
59040;SDS011;44825;53.200;6.448;2023-10-13T08:56:04;17.80;;;6.68;;
59040;SDS011;44825;53.200;6.448;2023-10-13T08:58:34;16.35;;;6.50;;
59040;SDS011;44825;53.200;6.448;2023-10-13T09:01:19;11.88;;;6.15;;
59040;SDS011;44825;53.200;6.448;2023-10-13T09:04:01;17.75;;;6.97;;
59040;SDS011;44825;53.200;6.448;2023-10-13T09:06:59;13.23;;;6.88;;
59040;SDS011;44825;53.200;6.448;2023-10-13T09:09:33;17.52;;;7.50;;
59040;SDS011;44825;53.200;6.448;2023-10-13T09:14:39;15.82;;;8.25;;
59040;SDS011;44825;53.200;6.448;2023-10-13T09:17:22;16.67;;;7.85;;
59040;SDS011;44825;53.200;6.448;2023-10-13T09:20:01;21.10;;;9.15;;
59040;SDS011;44825;53.200;6.448;2023-10-13T09:22:50;21.35;;;8.52;;
59040;SDS011;44825;53.200;6.448;2023-10-13T09:25:29;20.80;;;9.02;;
59040;SDS011;44825;53.200;6.448;2023-10-13T09:28:00;19.35;;;8.48;;
59040;SDS011;44825;53.200;6.448;2023-10-13T09:30:26;20.30;;;8.82;;
59040;SDS011;44825;53.200;6.448;2023-10-13T09:33:02;24.73;;;10.15;;
59040;SDS011;44825;53.200;6.448;2023-10-13T09:35:40;19.52;;;8.82;;
59040;SDS011;44825;53.200;6.448;2023-10-13T09:38:07;20.20;;;8.18;;
59040;SDS011;44825;53.200;6.448;2023-10-13T09:40:36;20.65;;;7.75;;
59040;SDS011;44825;53.200;6.448;2023-10-13T09:43:11;18.45;;;8.13;;
59040;SDS011;44825;53.200;6.448;2023-10-13T09:45:40;19.23;;;8.90;;
59040;SDS011;44825;53.200;6.448;2023-10-13T09:48:33;21.17;;;8.85;;
59040;SDS011;44825;53.200;6.448;2023-10-13T09:51:01;22.13;;;9.48;;
59040;SDS011;44825;53.200;6.448;2023-10-13T09:53:34;24.23;;;9.40;;
59040;SDS011;44825;53.200;6.448;2023-10-13T09:56:11;14.98;;;8.23;;
59040;SDS011;44825;53.200;6.448;2023-10-13T09:58:45;19.30;;;9.10;;
59040;SDS011;44825;53.200;6.448;2023-10-13T10:01:12;17.52;;;8.68;;
59040;SDS011;44825;53.200;6.448;2023-10-13T10:03:46;13.68;;;7.72;;
59040;SDS011;44825;53.200;6.448;2023-10-13T10:06:21;16.25;;;6.63;;
59040;SDS011;44825;53.200;6.448;2023-10-13T10:09:03;19.20;;;7.85;;
59040;SDS011;44825;53.200;6.448;2023-10-13T10:11:44;19.65;;;7.65;;
59040;SDS011;44825;53.200;6.448;2023-10-13T10:14:19;20.40;;;7.75;;
59040;SDS011;44825;53.200;6.448;2023-10-13T10:19:25;15.93;;;6.95;;
59040;SDS011;44825;53.200;6.448;2023-10-13T10:22:04;17.45;;;7.95;;
59040;SDS011;44825;53.200;6.448;2023-10-13T10:24:43;19.20;;;7.25;;
59040;SDS011;44825;53.200;6.448;2023-10-13T10:27:11;14.85;;;6.45;;
59040;SDS011;44825;53.200;6.448;2023-10-13T10:29:53;13.35;;;6.22;;
59040;SDS011;44825;53.200;6.448;2023-10-13T10:32:20;21.15;;;7.90;;
59040;SDS011;44825;53.200;6.448;2023-10-13T10:34:46;19.45;;;7.78;;
59040;SDS011;44825;53.200;6.448;2023-10-13T10:37:13;18.67;;;7.60;;
59040;SDS011;44825;53.200;6.448;2023-10-13T10:39:41;22.70;;;7.82;;
59040;SDS011;44825;53.200;6.448;2023-10-13T10:42:13;19.27;;;7.10;;
59040;SDS011;44825;53.200;6.448;2023-10-13T10:44:49;21.20;;;7.70;;
59040;SDS011;44825;53.200;6.448;2023-10-13T10:47:20;25.10;;;7.40;;
59040;SDS011;44825;53.200;6.448;2023-10-13T10:49:56;20.08;;;7.10;;
59040;SDS011;44825;53.200;6.448;2023-10-13T10:52:23;20.42;;;7.90;;
59040;SDS011;44825;53.200;6.448;2023-10-13T10:54:58;19.25;;;7.40;;
59040;SDS011;44825;53.200;6.448;2023-10-13T10:57:24;18.30;;;6.68;;
59040;SDS011;44825;53.200;6.448;2023-10-13T10:59:54;14.90;;;6.45;;
59040;SDS011;44825;53.200;6.448;2023-10-13T11:02:40;19.67;;;6.82;;
59040;SDS011;44825;53.200;6.448;2023-10-13T11:05:06;19.90;;;7.60;;
59040;SDS011;44825;53.200;6.448;2023-10-13T11:07:35;16.98;;;6.85;;
59040;SDS011;44825;53.200;6.448;2023-10-13T11:10:08;19.27;;;7.53;;
59040;SDS011;44825;53.200;6.448;2023-10-13T11:12:42;20.23;;;6.93;;
59040;SDS011;44825;53.200;6.448;2023-10-13T11:15:19;16.25;;;6.68;;
59040;SDS011;44825;53.200;6.448;2023-10-13T11:17:49;17.38;;;7.55;;
59040;SDS011;44825;53.200;6.448;2023-10-13T11:20:23;20.25;;;6.63;;
59040;SDS011;44825;53.200;6.448;2023-10-13T11:22:58;18.05;;;6.22;;
59040;SDS011;44825;53.200;6.448;2023-10-13T11:25:30;17.05;;;6.30;;
59040;SDS011;44825;53.200;6.448;2023-10-13T11:28:09;17.15;;;6.65;;
59040;SDS011;44825;53.200;6.448;2023-10-13T11:30:42;16.65;;;6.70;;
59040;SDS011;44825;53.200;6.448;2023-10-13T11:33:10;13.10;;;6.03;;
59040;SDS011;44825;53.200;6.448;2023-10-13T11:35:37;14.98;;;7.43;;
59040;SDS011;44825;53.200;6.448;2023-10-13T11:38:19;17.50;;;6.13;;
59040;SDS011;44825;53.200;6.448;2023-10-13T11:40:53;20.15;;;6.45;;
59040;SDS011;44825;53.200;6.448;2023-10-13T11:48:35;14.85;;;6.35;;
59040;SDS011;44825;53.200;6.448;2023-10-13T11:51:05;18.92;;;6.80;;
59040;SDS011;44825;53.200;6.448;2023-10-13T11:54:04;18.45;;;6.30;;
59040;SDS011;44825;53.200;6.448;2023-10-13T11:56:30;12.73;;;5.65;;
59040;SDS011;44825;53.200;6.448;2023-10-13T11:58:56;18.42;;;6.82;;
59040;SDS011;44825;53.200;6.448;2023-10-13T12:01:26;20.60;;;7.05;;
59040;SDS011;44825;53.200;6.448;2023-10-13T12:04:11;15.98;;;6.55;;
59040;SDS011;44825;53.200;6.448;2023-10-13T12:06:56;15.60;;;6.97;;
59040;SDS011;44825;53.200;6.448;2023-10-13T12:09:41;15.60;;;6.97;;
59040;SDS011;44825;53.200;6.448;2023-10-13T12:12:17;19.23;;;7.22;;
59040;SDS011;44825;53.200;6.448;2023-10-13T12:14:43;17.80;;;6.95;;
59040;SDS011;44825;53.200;6.448;2023-10-13T12:17:20;16.95;;;6.82;;
59040;SDS011;44825;53.200;6.448;2023-10-13T12:20:08;15.23;;;6.68;;
59040;SDS011;44825;53.200;6.448;2023-10-13T12:22:43;15.38;;;7.50;;
59040;SDS011;44825;53.200;6.448;2023-10-13T12:25:24;18.73;;;6.55;;
59040;SDS011;44825;53.200;6.448;2023-10-13T12:27:59;16.92;;;7.47;;
59040;SDS011;44825;53.200;6.448;2023-10-13T12:30:45;17.98;;;7.25;;
59040;SDS011;44825;53.200;6.448;2023-10-13T12:33:14;18.75;;;6.88;;
59040;SDS011;44825;53.200;6.448;2023-10-13T12:35:49;17.58;;;7.25;;
59040;SDS011;44825;53.200;6.448;2023-10-13T12:38:34;19.25;;;7.32;;
59040;SDS011;44825;53.200;6.448;2023-10-13T12:41:15;17.15;;;6.38;;
59040;SDS011;44825;53.200;6.448;2023-10-13T12:44:00;17.67;;;7.47;;
59040;SDS011;44825;53.200;6.448;2023-10-13T12:46:45;20.42;;;7.40;;
59040;SDS011;44825;53.200;6.448;2023-10-13T12:49:32;17.90;;;7.78;;
59040;SDS011;44825;53.200;6.448;2023-10-13T12:52:07;19.35;;;8.27;;
59040;SDS011;44825;53.200;6.448;2023-10-13T12:54:53;18.73;;;8.30;;
59040;SDS011;44825;53.200;6.448;2023-10-13T12:57:25;18.33;;;7.78;;
59040;SDS011;44825;53.200;6.448;2023-10-13T12:59:52;15.88;;;7.97;;
59040;SDS011;44825;53.200;6.448;2023-10-13T13:02:22;15.70;;;8.43;;
59040;SDS011;44825;53.200;6.448;2023-10-13T13:04:51;21.70;;;8.15;;
59040;SDS011;44825;53.200;6.448;2023-10-13T13:07:37;18.13;;;8.35;;
59040;SDS011;44825;53.200;6.448;2023-10-13T13:10:21;19.23;;;8.55;;
59040;SDS011;44825;53.200;6.448;2023-10-13T13:13:00;19.33;;;8.77;;
59040;SDS011;44825;53.200;6.448;2023-10-13T13:15:26;24.00;;;10.10;;
59040;SDS011;44825;53.200;6.448;2023-10-13T13:17:52;18.55;;;8.55;;
59040;SDS011;44825;53.200;6.448;2023-10-13T13:20:18;17.70;;;8.25;;
59040;SDS011;44825;53.200;6.448;2023-10-13T13:22:55;21.67;;;9.70;;
59040;SDS011;44825;53.200;6.448;2023-10-13T13:25:27;19.00;;;8.75;;
59040;SDS011;44825;53.200;6.448;2023-10-13T13:27:55;23.63;;;9.50;;
59040;SDS011;44825;53.200;6.448;2023-10-13T13:30:23;19.48;;;9.18;;
59040;SDS011;44825;53.200;6.448;2023-10-13T13:32:55;18.92;;;8.60;;
59040;SDS011;44825;53.200;6.448;2023-10-13T13:35:23;20.35;;;9.65;;
59040;SDS011;44825;53.200;6.448;2023-10-13T13:37:54;16.48;;;8.95;;
59040;SDS011;44825;53.200;6.448;2023-10-13T13:40:30;19.67;;;9.45;;
59040;SDS011;44825;53.200;6.448;2023-10-13T13:43:00;21.45;;;9.70;;
59040;SDS011;44825;53.200;6.448;2023-10-13T13:45:26;19.88;;;9.23;;
59040;SDS011;44825;53.200;6.448;2023-10-13T13:47:57;22.30;;;8.57;;
59040;SDS011;44825;53.200;6.448;2023-10-13T13:50:23;19.25;;;8.73;;
59040;SDS011;44825;53.200;6.448;2023-10-13T13:52:51;21.45;;;10.30;;
59040;SDS011;44825;53.200;6.448;2023-10-13T13:55:18;22.00;;;9.30;;
59040;SDS011;44825;53.200;6.448;2023-10-13T13:57:44;17.17;;;8.38;;
59040;SDS011;44825;53.200;6.448;2023-10-13T14:00:11;16.20;;;7.30;;
59040;SDS011;44825;53.200;6.448;2023-10-13T14:03:02;17.63;;;8.82;;
59040;SDS011;44825;53.200;6.448;2023-10-13T14:05:28;18.48;;;8.15;;
59040;SDS011;44825;53.200;6.448;2023-10-13T14:07:54;21.77;;;9.30;;
59040;SDS011;44825;53.200;6.448;2023-10-13T14:10:20;22.63;;;8.70;;
59040;SDS011;44825;53.200;6.448;2023-10-13T14:13:18;23.90;;;9.73;;
59040;SDS011;44825;53.200;6.448;2023-10-13T14:15:47;16.40;;;8.45;;
59040;SDS011;44825;53.200;6.448;2023-10-13T14:18:13;19.98;;;7.97;;
59040;SDS011;44825;53.200;6.448;2023-10-13T14:20:40;23.67;;;9.73;;
59040;SDS011;44825;53.200;6.448;2023-10-13T14:23:07;20.17;;;8.63;;
59040;SDS011;44825;53.200;6.448;2023-10-13T14:25:36;16.33;;;8.00;;
59040;SDS011;44825;53.200;6.448;2023-10-13T14:28:05;19.90;;;9.32;;
59040;SDS011;44825;53.200;6.448;2023-10-13T14:30:32;18.70;;;7.88;;
59040;SDS011;44825;53.200;6.448;2023-10-13T14:32:58;18.10;;;8.75;;
59040;SDS011;44825;53.200;6.448;2023-10-13T14:35:26;20.88;;;8.18;;
59040;SDS011;44825;53.200;6.448;2023-10-13T14:37:52;17.10;;;8.07;;
59040;SDS011;44825;53.200;6.448;2023-10-13T14:40:18;19.17;;;7.40;;
59040;SDS011;44825;53.200;6.448;2023-10-13T14:42:47;18.67;;;7.60;;
59040;SDS011;44825;53.200;6.448;2023-10-13T14:45:13;18.73;;;8.30;;
59040;SDS011;44825;53.200;6.448;2023-10-13T14:47:41;19.55;;;7.93;;
59040;SDS011;44825;53.200;6.448;2023-10-13T14:50:08;16.33;;;7.03;;
59040;SDS011;44825;53.200;6.448;2023-10-13T14:52:53;21.92;;;8.60;;
59040;SDS011;44825;53.200;6.448;2023-10-13T14:55:19;22.42;;;8.98;;
59040;SDS011;44825;53.200;6.448;2023-10-13T14:57:46;16.33;;;8.07;;
59040;SDS011;44825;53.200;6.448;2023-10-13T15:00:12;18.23;;;7.55;;
59040;SDS011;44825;53.200;6.448;2023-10-13T15:02:39;23.30;;;8.48;;
59040;SDS011;44825;53.200;6.448;2023-10-13T15:05:08;22.58;;;7.95;;
59040;SDS011;44825;53.200;6.448;2023-10-13T15:07:41;20.50;;;8.93;;
59040;SDS011;44825;53.200;6.448;2023-10-13T15:10:10;19.17;;;7.57;;
59040;SDS011;44825;53.200;6.448;2023-10-13T15:12:39;22.75;;;8.20;;
59040;SDS011;44825;53.200;6.448;2023-10-13T15:15:06;22.75;;;8.52;;
59040;SDS011;44825;53.200;6.448;2023-10-13T15:17:38;21.95;;;9.00;;
59040;SDS011;44825;53.200;6.448;2023-10-13T15:20:04;21.13;;;7.70;;
59040;SDS011;44825;53.200;6.448;2023-10-13T15:22:33;21.90;;;8.40;;
59040;SDS011;44825;53.200;6.448;2023-10-13T15:25:01;17.73;;;7.72;;
59040;SDS011;44825;53.200;6.448;2023-10-13T15:27:50;22.35;;;7.80;;
59040;SDS011;44825;53.200;6.448;2023-10-13T15:30:27;17.75;;;8.30;;
59040;SDS011;44825;53.200;6.448;2023-10-13T15:33:08;17.10;;;7.18;;
59040;SDS011;44825;53.200;6.448;2023-10-13T15:35:37;20.90;;;8.30;;